createdAt,value
2023-04-30T00:02:16.670Z,16.04
2023-04-30T00:05:18.795Z,15.93
2023-04-30T00:08:20.862Z,15.82
2023-04-30T00:11:22.990Z,15.80
2023-04-30T00:14:25.155Z,15.86
2023-04-30T00:17:27.392Z,15.74
2023-04-30T00:20:29.700Z,15.76
2023-04-30T00:23:31.783Z,15.74
2023-04-30T00:26:33.915Z,15.70
2023-04-30T00:29:36.178Z,15.68
2023-04-30T00:32:38.373Z,15.70
2023-04-30T00:35:40.785Z,15.67
2023-04-30T00:38:42.957Z,15.64
2023-04-30T00:41:45.184Z,15.62
2023-04-30T00:44:47.541Z,15.59
2023-04-30T00:47:51.654Z,15.49
2023-04-30T00:50:54.032Z,15.44
2023-04-30T00:53:56.737Z,15.50
2023-04-30T00:56:59.336Z,15.42
2023-04-30T01:00:02.219Z,15.43
2023-04-30T01:03:04.707Z,15.48
2023-04-30T01:06:06.920Z,15.46
2023-04-30T01:09:10.524Z,15.41
2023-04-30T01:12:29.762Z,15.37
2023-04-30T01:15:38.723Z,15.44
2023-04-30T01:18:49.536Z,15.45
2023-04-30T01:21:53.039Z,15.48
2023-04-30T01:25:10.105Z,15.42
2023-04-30T01:28:20.853Z,15.42
2023-04-30T01:31:24.589Z,15.28
2023-04-30T01:34:26.910Z,15.27
2023-04-30T01:38:04.159Z,15.21
2023-04-30T01:41:30.970Z,15.23
2023-04-30T01:44:58.798Z,15.15
2023-04-30T01:48:34.803Z,15.12
2023-04-30T01:51:46.733Z,15.12
2023-04-30T01:54:56.466Z,15.04
2023-04-30T01:58:05.336Z,15.11
2023-04-30T02:01:30.019Z,15.05
2023-04-30T02:04:32.503Z,14.98
2023-04-30T02:07:44.207Z,15.05
2023-04-30T02:10:46.416Z,15.03
2023-04-30T02:13:48.633Z,14.93
2023-04-30T02:16:50.835Z,14.89
2023-04-30T02:19:53.089Z,14.93
2023-04-30T02:22:55.471Z,14.84
2023-04-30T02:25:57.608Z,14.91
2023-04-30T02:28:59.652Z,14.84
2023-04-30T02:32:02.127Z,14.86
2023-04-30T02:35:04.626Z,14.93
2023-04-30T02:38:07.364Z,14.81
2023-04-30T02:41:09.387Z,14.92
2023-04-30T02:44:12.547Z,14.91
2023-04-30T02:47:15.068Z,14.80
2023-04-30T02:50:17.287Z,14.82
2023-04-30T02:53:19.502Z,14.69
2023-04-30T02:56:21.474Z,14.77
2023-04-30T02:59:23.648Z,14.53
2023-04-30T03:02:25.782Z,14.53
2023-04-30T03:05:28.876Z,14.57
2023-04-30T03:08:31.060Z,14.52
2023-04-30T03:11:33.896Z,14.54
2023-04-30T03:14:36.097Z,14.47
2023-04-30T03:17:38.368Z,14.42
2023-04-30T03:20:40.572Z,14.60
2023-04-30T03:23:42.755Z,14.57
2023-04-30T03:26:44.747Z,14.58
2023-04-30T03:29:47.063Z,14.68
2023-04-30T03:32:49.184Z,14.74
2023-04-30T03:35:52.008Z,14.72
2023-04-30T03:38:54.658Z,14.83
2023-04-30T03:41:56.792Z,14.85
2023-04-30T03:44:58.886Z,14.86
2023-04-30T03:48:01.076Z,14.78
2023-04-30T03:51:03.509Z,14.73
2023-04-30T03:54:08.768Z,14.84
2023-04-30T03:57:13.050Z,14.91
2023-04-30T04:00:15.697Z,14.94
2023-04-30T04:03:23.342Z,14.99
2023-04-30T04:06:25.556Z,15.04
2023-04-30T04:09:27.663Z,15.02
2023-04-30T04:12:29.730Z,15.23
2023-04-30T04:15:36.974Z,15.55
2023-04-30T04:18:40.723Z,15.86
2023-04-30T04:21:43.013Z,16.03
2023-04-30T04:24:50.026Z,16.26
2023-04-30T04:27:55.492Z,16.41
2023-04-30T04:30:57.727Z,16.43
2023-04-30T04:34:01.474Z,16.31
2023-04-30T04:37:03.784Z,16.22
2023-04-30T04:40:07.220Z,16.24
2023-04-30T04:43:09.368Z,16.19
2023-04-30T04:46:13.763Z,16.20
2023-04-30T04:49:16.674Z,16.33
2023-04-30T04:52:18.776Z,16.18
2023-04-30T04:55:20.848Z,16.12
2023-04-30T04:58:22.982Z,16.12
2023-04-30T05:01:25.190Z,16.17
2023-04-30T05:04:28.137Z,16.13
2023-04-30T05:07:30.329Z,16.13
2023-04-30T05:10:32.821Z,16.12
2023-04-30T05:13:34.918Z,16.12
2023-04-30T05:16:37.305Z,16.14
2023-04-30T05:19:39.639Z,16.10
2023-04-30T05:22:41.936Z,16.22
2023-04-30T05:25:47.531Z,16.26
2023-04-30T05:29:19.087Z,16.34
2023-04-30T05:32:23.409Z,16.33
2023-04-30T05:35:30.619Z,16.31
2023-04-30T05:38:33.036Z,16.24
2023-04-30T05:41:35.103Z,16.24
2023-04-30T05:44:37.417Z,16.28
2023-04-30T05:47:39.544Z,16.32
2023-04-30T05:50:41.714Z,16.38
2023-04-30T05:53:43.836Z,16.35
2023-04-30T05:56:46.518Z,16.32
2023-04-30T05:59:48.539Z,16.38
2023-04-30T06:02:50.893Z,16.36
2023-04-30T06:05:54.265Z,16.41
2023-04-30T06:08:56.464Z,17.02
2023-04-30T06:11:58.664Z,19.51
2023-04-30T06:15:00.869Z,21.00
2023-04-30T06:18:03.380Z,19.61
2023-04-30T06:21:05.710Z,18.39
2023-04-30T06:24:10.151Z,17.79
2023-04-30T06:27:12.277Z,17.52
2023-04-30T06:30:15.682Z,17.47
2023-04-30T06:33:18.264Z,17.43
2023-04-30T06:36:20.523Z,17.39
2023-04-30T06:39:22.632Z,17.38
2023-04-30T06:42:24.621Z,17.38
2023-04-30T06:45:26.928Z,17.39
2023-04-30T06:48:29.291Z,17.46
2023-04-30T06:51:31.464Z,17.57
2023-04-30T06:54:33.608Z,17.66
2023-04-30T06:57:38.621Z,17.75
2023-04-30T07:00:40.975Z,17.72
2023-04-30T07:03:43.231Z,17.69
2023-04-30T07:06:49.711Z,17.62
2023-04-30T07:09:53.750Z,17.63
2023-04-30T07:12:56.894Z,17.64
2023-04-30T07:15:59.738Z,17.73
2023-04-30T07:19:01.902Z,17.80
2023-04-30T07:22:04.220Z,18.07
2023-04-30T07:25:06.995Z,18.23
2023-04-30T07:28:09.045Z,18.30
2023-04-30T07:31:11.258Z,18.32
2023-04-30T07:34:13.491Z,18.52
2023-04-30T07:37:16.386Z,18.57
2023-04-30T07:40:25.377Z,18.57
2023-04-30T07:43:37.388Z,18.64
2023-04-30T07:46:40.186Z,18.68
2023-04-30T07:49:42.467Z,18.72
2023-04-30T07:52:52.144Z,18.83
2023-04-30T07:55:54.267Z,18.88
2023-04-30T07:58:56.389Z,18.90
2023-04-30T08:01:59.228Z,18.91
2023-04-30T08:05:01.675Z,18.97
2023-04-30T08:08:03.845Z,19.38
2023-04-30T08:11:06.261Z,20.33
2023-04-30T08:14:08.502Z,20.64
2023-04-30T08:17:12.152Z,20.98
2023-04-30T08:20:14.356Z,21.22
2023-04-30T08:23:17.361Z,21.47
2023-04-30T08:26:20.464Z,21.37
2023-04-30T08:29:22.531Z,21.38
2023-04-30T08:32:24.928Z,21.37
2023-04-30T08:35:27.145Z,21.37
2023-04-30T08:38:29.307Z,21.25
2023-04-30T08:41:34.476Z,21.22
2023-04-30T08:44:43.975Z,21.32
2023-04-30T08:47:46.840Z,21.23
2023-04-30T08:50:49.036Z,21.12
2023-04-30T08:53:53.486Z,21.30
2023-04-30T08:56:55.472Z,21.27
2023-04-30T08:59:58.240Z,21.23
2023-04-30T09:03:02.263Z,21.47
2023-04-30T09:06:05.950Z,21.76
2023-04-30T09:09:16.565Z,21.94
2023-04-30T09:12:20.027Z,21.94
2023-04-30T09:15:24.449Z,21.73
2023-04-30T09:18:26.695Z,21.73
2023-04-30T09:21:38.868Z,21.66
2023-04-30T09:24:52.201Z,21.54
2023-04-30T09:28:12.294Z,21.47
2023-04-30T09:31:22.256Z,21.53
2023-04-30T09:34:35.408Z,21.40
2023-04-30T09:37:38.847Z,21.28
2023-04-30T09:40:42.770Z,21.19
2023-04-30T09:43:45.717Z,21.12
2023-04-30T09:46:51.108Z,21.02
2023-04-30T09:49:57.162Z,20.98
2023-04-30T09:53:21.114Z,21.07
2023-04-30T09:56:37.237Z,21.10
2023-04-30T10:00:00.035Z,21.17
2023-04-30T10:03:12.071Z,21.18
2023-04-30T10:06:16.961Z,21.18
2023-04-30T10:09:25.376Z,21.07
2023-04-30T10:12:59.728Z,21.03
2023-04-30T10:16:24.197Z,20.98
2023-04-30T10:19:32.427Z,20.99
2023-04-30T10:22:36.740Z,21.02
2023-04-30T10:25:41.611Z,20.95
2023-04-30T10:28:50.210Z,20.97
2023-04-30T10:31:53.951Z,20.98
2023-04-30T10:35:06.613Z,20.83
2023-04-30T10:38:17.936Z,20.84
2023-04-30T10:41:25.816Z,20.74
2023-04-30T10:44:28.220Z,20.67
2023-04-30T10:47:32.550Z,20.67
2023-04-30T10:50:45.025Z,20.65
2023-04-30T10:53:52.060Z,20.65
2023-04-30T10:57:11.619Z,20.70
2023-04-30T11:00:14.676Z,20.67
2023-04-30T11:03:17.129Z,20.62
2023-04-30T11:06:22.240Z,20.40
2023-04-30T11:09:45.669Z,20.41
2023-04-30T11:12:49.418Z,20.39
2023-04-30T11:15:51.769Z,20.34
2023-04-30T11:18:54.589Z,20.29
2023-04-30T11:22:17.130Z,20.28
2023-04-30T11:25:20.064Z,20.23
2023-04-30T11:28:26.347Z,20.18
2023-04-30T11:31:35.186Z,20.17
2023-04-30T11:34:38.219Z,20.13
2023-04-30T11:37:45.506Z,20.08
2023-04-30T11:40:52.200Z,20.02
2023-04-30T11:43:54.425Z,19.94
2023-04-30T11:46:56.825Z,19.99
2023-04-30T11:49:59.094Z,19.96
2023-04-30T11:53:05.753Z,20.03
2023-04-30T11:56:12.005Z,20.16
2023-04-30T11:59:16.362Z,20.24
2023-04-30T12:02:20.461Z,20.16
2023-04-30T12:05:26.955Z,20.15
2023-04-30T12:08:32.139Z,20.23
2023-04-30T12:11:35.999Z,20.25
2023-04-30T12:32:19.106Z,20.32
2023-04-30T12:35:23.367Z,20.28
2023-04-30T12:38:26.347Z,20.26
2023-04-30T12:41:30.483Z,20.31
2023-04-30T12:44:43.491Z,20.23
2023-04-30T12:47:55.573Z,20.13
2023-04-30T12:51:02.648Z,20.19
2023-04-30T12:54:05.046Z,20.08
2023-04-30T12:57:13.805Z,20.10
2023-04-30T13:01:30.832Z,20.21
2023-04-30T13:10:22.751Z,20.16
2023-04-30T13:13:25.323Z,20.16
2023-04-30T13:21:16.627Z,20.09
2023-04-30T13:24:19.808Z,20.03
2023-04-30T13:27:27.778Z,20.10
2023-04-30T13:30:30.871Z,20.10
2023-04-30T13:33:33.117Z,20.11
2023-04-30T13:37:00.582Z,20.07
2023-04-30T13:45:29.759Z,19.81
2023-04-30T13:48:31.846Z,19.91
2023-04-30T13:51:34.748Z,19.83
2023-04-30T13:54:37.822Z,19.85
2023-04-30T13:57:40.389Z,19.85
2023-04-30T14:00:42.832Z,19.78
2023-04-30T14:04:14.512Z,19.88
2023-04-30T14:07:41.004Z,19.89
2023-04-30T14:10:44.532Z,19.89
2023-04-30T14:13:49.338Z,19.88
2023-04-30T14:16:51.930Z,19.87
2023-04-30T14:19:57.428Z,19.94
2023-04-30T14:23:02.626Z,19.93
2023-04-30T14:26:05.922Z,19.96
2023-04-30T14:29:09.233Z,20.00
2023-04-30T14:32:38.266Z,19.98
2023-04-30T14:52:47.937Z,19.87
2023-04-30T14:55:53.495Z,19.85
2023-04-30T14:58:55.611Z,19.84
2023-04-30T15:06:47.492Z,19.73
2023-04-30T15:09:50.466Z,19.61
2023-04-30T15:12:52.642Z,19.52
2023-04-30T15:15:54.860Z,19.54
2023-04-30T15:18:57.172Z,19.83
2023-04-30T15:21:59.755Z,19.99
2023-04-30T15:25:02.515Z,20.00
2023-04-30T15:28:05.902Z,19.94
2023-04-30T15:31:08.597Z,19.82
2023-04-30T15:34:10.740Z,19.86
2023-04-30T15:37:12.995Z,19.84
2023-04-30T15:40:18.761Z,19.79
2023-04-30T15:43:21.513Z,19.84
2023-04-30T15:46:26.190Z,19.84
2023-04-30T15:49:29.876Z,19.88
2023-04-30T15:52:32.316Z,19.85
2023-04-30T15:55:34.853Z,19.80
2023-04-30T15:58:39.315Z,19.83
2023-04-30T16:01:46.841Z,19.83
2023-04-30T16:04:51.050Z,19.82
2023-04-30T16:07:55.186Z,19.79
2023-04-30T16:10:58.165Z,19.79
2023-04-30T16:14:00.310Z,19.74
2023-04-30T16:17:02.998Z,19.69
2023-04-30T16:20:10.796Z,19.58
2023-04-30T16:23:13.129Z,19.55
2023-04-30T16:26:16.185Z,19.56
2023-04-30T16:29:26.567Z,19.50
2023-04-30T16:32:28.659Z,19.50
2023-04-30T16:35:38.650Z,19.48
2023-04-30T16:38:43.152Z,19.44
2023-04-30T16:41:45.464Z,19.41
2023-04-30T16:44:47.579Z,19.41
2023-04-30T16:47:49.842Z,19.36
2023-04-30T16:50:52.586Z,19.32
2023-04-30T16:53:57.164Z,19.32
2023-04-30T16:56:59.530Z,19.28
2023-04-30T17:00:01.615Z,19.22
2023-04-30T17:03:05.593Z,19.18
2023-04-30T17:06:10.106Z,19.13
2023-04-30T17:09:12.537Z,19.15
2023-04-30T17:12:21.395Z,19.25
2023-04-30T17:19:32.461Z,19.21
2023-04-30T17:22:35.024Z,19.14
2023-04-30T17:25:38.360Z,18.99
2023-04-30T17:28:40.414Z,18.87
2023-04-30T17:31:44.370Z,18.81
2023-04-30T17:34:46.680Z,18.76
2023-04-30T17:37:50.244Z,18.67
2023-04-30T17:40:54.576Z,18.63
2023-04-30T17:43:57.423Z,18.64
2023-04-30T17:46:59.642Z,18.61
2023-04-30T17:50:04.937Z,18.54
2023-04-30T17:53:07.889Z,18.50
2023-04-30T17:56:12.510Z,18.43
2023-04-30T17:59:15.900Z,18.37
2023-04-30T18:02:32.790Z,18.32
2023-04-30T18:05:35.766Z,18.27
2023-04-30T18:08:39.469Z,18.24
2023-04-30T18:11:49.440Z,18.16
2023-04-30T18:14:51.490Z,18.11
2023-04-30T18:17:55.207Z,18.11
2023-04-30T18:20:57.499Z,18.19
2023-04-30T18:24:01.249Z,18.17
2023-04-30T18:27:04.064Z,18.20
2023-04-30T18:30:08.996Z,18.19
2023-04-30T18:33:11.041Z,18.22
2023-04-30T18:36:13.322Z,18.19
2023-04-30T18:39:15.458Z,18.15
2023-04-30T18:42:17.895Z,18.12
2023-04-30T18:45:20.713Z,18.15
2023-04-30T18:48:24.136Z,18.13
2023-04-30T18:51:26.630Z,18.09
2023-04-30T18:54:30.316Z,18.06
2023-04-30T18:57:32.548Z,17.99
2023-04-30T19:00:34.640Z,17.86
2023-04-30T19:03:37.120Z,17.83
2023-04-30T19:06:40.112Z,17.71
2023-04-30T19:09:45.446Z,17.64
2023-04-30T19:12:47.831Z,17.65
2023-04-30T19:15:55.479Z,17.60
2023-04-30T19:18:58.349Z,17.54
2023-04-30T19:22:02.520Z,17.55
2023-04-30T19:25:05.724Z,17.49
2023-04-30T19:28:12.980Z,17.52
2023-04-30T19:31:16.113Z,17.47
2023-04-30T19:34:18.196Z,17.39
2023-04-30T19:37:20.234Z,17.39
2023-04-30T19:40:23.006Z,17.35
2023-04-30T19:43:25.285Z,17.30
2023-04-30T19:46:27.610Z,17.31
2023-04-30T19:49:29.790Z,17.32
2023-04-30T19:52:31.988Z,17.30
2023-04-30T19:55:35.177Z,17.28
2023-04-30T19:58:37.369Z,17.23
2023-04-30T20:01:40.173Z,17.18
2023-04-30T20:04:42.283Z,17.16
2023-04-30T20:07:44.343Z,17.01
2023-04-30T20:10:51.011Z,17.08
2023-04-30T20:13:55.321Z,17.09
2023-04-30T20:16:59.582Z,17.06
2023-04-30T20:20:02.967Z,16.99
2023-04-30T20:23:17.096Z,16.99
2023-04-30T20:26:21.195Z,16.96
2023-04-30T20:29:23.545Z,16.88
2023-04-30T20:32:29.006Z,16.82
2023-04-30T20:35:32.324Z,16.84
2023-04-30T20:38:34.809Z,16.88
2023-04-30T20:41:36.986Z,16.90
2023-04-30T20:44:41.396Z,16.88
2023-04-30T20:47:43.484Z,16.78
2023-04-30T20:50:46.276Z,16.74
2023-04-30T20:53:48.503Z,16.68
2023-04-30T20:56:50.668Z,16.65
2023-04-30T20:59:52.825Z,16.62
2023-04-30T21:02:55.133Z,16.61
2023-04-30T21:05:57.493Z,16.54
2023-04-30T21:08:59.675Z,16.47
2023-04-30T21:12:04.585Z,16.51
2023-04-30T21:15:07.651Z,16.52
2023-04-30T21:18:09.907Z,16.42
2023-04-30T21:21:12.382Z,16.39
2023-04-30T21:24:14.675Z,16.37
2023-04-30T21:27:16.777Z,16.37
2023-04-30T21:30:19.289Z,16.34
2023-04-30T21:33:21.505Z,16.40
2023-04-30T21:36:24.095Z,16.31
2023-04-30T21:39:26.993Z,16.31
2023-04-30T21:42:29.905Z,16.27
2023-04-30T21:45:32.622Z,16.21
2023-04-30T21:48:34.712Z,16.20
2023-04-30T21:51:37.560Z,16.15
2023-04-30T21:54:39.723Z,16.21
2023-04-30T21:57:41.864Z,16.12
2023-04-30T22:00:43.988Z,16.09
2023-04-30T22:03:46.158Z,16.15
2023-04-30T22:06:48.451Z,16.18
2023-04-30T22:09:52.764Z,16.18
2023-04-30T22:12:54.824Z,16.15
2023-04-30T22:15:57.076Z,16.11
2023-04-30T22:18:59.636Z,16.01
2023-04-30T22:22:01.979Z,16.15
2023-04-30T22:25:04.756Z,16.08
2023-04-30T22:28:07.349Z,16.11
2023-04-30T22:31:09.648Z,16.05
2023-04-30T22:34:14.473Z,15.98
2023-04-30T22:37:16.781Z,15.95
2023-04-30T22:40:19.368Z,15.93
2023-04-30T22:43:21.594Z,15.93
2023-04-30T22:46:23.809Z,15.88
2023-04-30T22:49:31.061Z,15.98
2023-04-30T22:52:34.650Z,16.04
2023-04-30T22:55:36.836Z,16.06
2023-04-30T22:58:38.887Z,15.95
2023-04-30T23:01:40.937Z,15.98
2023-04-30T23:04:43.096Z,15.94
2023-04-30T23:07:48.855Z,15.97
2023-04-30T23:10:53.220Z,15.89
2023-04-30T23:13:55.937Z,15.94
2023-04-30T23:16:59.905Z,15.91
2023-04-30T23:20:02.126Z,15.90
2023-04-30T23:23:04.173Z,15.92
2023-04-30T23:26:06.567Z,15.78
2023-04-30T23:29:08.723Z,15.75
2023-04-30T23:32:10.858Z,15.75
2023-04-30T23:35:13.050Z,15.66
2023-04-30T23:38:15.545Z,15.74
2023-04-30T23:41:18.104Z,15.79
2023-04-30T23:44:20.692Z,15.83
2023-04-30T23:47:23.215Z,15.88
2023-04-30T23:50:27.060Z,15.94
2023-04-30T23:53:29.381Z,15.97
2023-04-30T23:56:33.572Z,16.11
2023-04-30T23:59:35.651Z,16.15
